Flight Track Log - Related Links

Times and Time Zones

All times are in EDT time to prevent confusion due to time zone crossing. See the EGF4383 flight status page for this flight to view local times or setup timezone preferences in your user account.

Time Position Orientation Groundspeed Altitude Reporting Facility
EDT Latitude Longitude Course Direction KTS MPH feet Rate Location/Type
Fri 08:58:53 PM 38.1667 -78.4333 294° West 157 181 1,800  Level Potomac TRACON
Fri 08:59:48 PM 38.2058 -78.4614 331° Northwest 180 207 4,100 2,069 Climbing Washington Center
Fri 09:00:49 PM 38.2353 -78.5339 297° West 215 247 5,800 2,269 Climbing Washington Center
Fri 09:01:00 PM 38.2569 -78.7994 299° West  Level FlightAware Approximate
Fri 09:01:47 PM 38.2722 -78.6411 294° West 275 316 8,600  Level Washington Center
Fri 09:02:00 PM 38.3056 -78.9134 298° West  Level FlightAware Approximate
Fri 09:02:48 PM 38.3053 -78.7353 294° West 291 335 10,700  Level Washington Center
Fri 09:03:00 PM 38.3534 -79.0281 298° West  Level FlightAware Approximate
Fri 09:03:49 PM 38.3439 -78.8453 294° West 321 369 12,200  Level Washington Center
Fri 09:04:00 PM 38.3990 -79.1443 294° West  Level FlightAware Approximate
Fri 09:04:47 PM 38.3931 -78.9586 299° West 346 398 13,900  Level Washington Center
Fri 09:05:48 PM 38.4817 -78.9919 344° North 331 381 15,600 1,785 Climbing Washington Center
Fri 09:06:48 PM 38.5875 -79.0153 350° North 337 388 17,500 1,686 Climbing Washington Center
Fri 09:07:49 PM 38.6667 -79.0856 325° Northwest 331 381 19,000 1,513 Climbing Washington Center
Fri 09:08:47 PM 38.6961 -79.2147 286° West 340 391 20,500 1,500 Climbing Washington Center
Fri 09:09:49 PM 38.7294 -79.3547 287° West 366 421 22,000 1,426 Climbing Washington Center
Fri 09:10:49 PM 38.7606 -79.4919 286° West 383 441 23,400 1,525 Climbing Washington Center
Fri 09:11:47 PM 38.7936 -79.6297 287° West 404 465 25,000 1,613 Climbing Washington Center
Fri 09:12:48 PM 38.8225 -79.7539 287° West 404 465 26,600 1,525 Climbing Washington Center
Fri 09:13:49 PM 38.8533 -79.8861 287° West 404 465 28,100 1,488 Climbing Washington Center
Fri 09:14:49 PM 38.8839 -80.0214 286° West 399 459 29,600 1,065 Climbing Washington Center
Fri 09:15:36 PM 38.9097 -80.1350 286° West 396 456 30,000 1,000 Climbing Indianapolis Center
Fri 09:16:37 PM 38.9447 -80.2794 287° West 422 486 31,400 1,659 Climbing Indianapolis Center
Fri 09:17:39 PM 38.9764 -80.4194 286° West 413 475 33,400 1,854 Climbing Indianapolis Center
Fri 09:18:40 PM 39.0072 -80.5517 287° West 394 453 35,200 1,279 Climbing Indianapolis Center
Fri 09:19:41 PM 39.0525 -80.6775 295° West 394 453 36,000 393 Climbing Indianapolis Center
Fri 09:20:42 PM 39.1125 -80.8044 301° West 415 478 36,000  Level Indianapolis Center
Fri 09:21:43 PM 39.1742 -80.9389 301° West 435 501 36,000  Level Indianapolis Center
Fri 09:22:44 PM 39.2350 -81.0739 300° West 438 504 36,000  Level Indianapolis Center
Fri 09:23:45 PM 39.3092 -81.2353 301° West 438 504 36,000  Level Indianapolis Center
Fri 09:24:47 PM 39.3697 -81.3697 300° West 436 502 36,000  Level Indianapolis Center
Fri 09:25:48 PM 39.4089 -81.5147 289° West 438 504 36,000  Level Indianapolis Center
Fri 09:26:49 PM 39.3747 -81.6558 253° West 422 486 36,000  Level Indianapolis Center
Fri 09:27:50 PM 39.3075 -81.7761 234° Southwest 415 478 36,000  Level Indianapolis Center
Fri 09:28:51 PM 39.2419 -81.8917 234° Southwest 405 466 36,000  Level Indianapolis Center
Fri 09:29:52 PM 39.1764 -82.0100 234° Southwest 407 468 36,000  Level Indianapolis Center
Fri 09:30:54 PM 39.1122 -82.1261 235° Southwest 402 463 36,000  Level Indianapolis Center
Fri 09:31:55 PM 39.1006 -82.2708 264° West 416 479 36,000  Level Indianapolis Center
Fri 09:32:56 PM 39.1794 -82.4300 303° West 446 513 36,000  Level Indianapolis Center
Fri 09:33:57 PM 39.2522 -82.5342 312° West 450 518 36,000  Level Indianapolis Center
Fri 09:34:59 PM 39.3356 -82.6572 311° West 451 519 36,000  Level Indianapolis Center
Fri 09:36:00 PM 39.4314 -82.7978 311° West 443 510 36,000  Level Indianapolis Center
Fri 09:37:01 PM 39.5147 -82.9214 311° West 451 519 36,000 -49 Level Indianapolis Center
Fri 09:38:02 PM 39.5978 -83.0458 311° West 453 521 35,900  Descending Indianapolis Center
Fri 09:39:03 PM 39.6797 -83.1692 311° West 450 518 36,000 49 Climbing Indianapolis Center
Fri 09:40:05 PM 39.7619 -83.2931 311° West 449 517 36,000  Level Indianapolis Center
Fri 09:41:06 PM 39.8389 -83.4058 312° West 452 520 36,000  Level Indianapolis Center
Fri 09:42:07 PM 39.9208 -83.5317 310° West 453 521 36,000  Level Indianapolis Center
Fri 09:43:08 PM 40.0050 -83.6625 310° West 458 527 36,000  Level Indianapolis Center
Fri 09:44:10 PM 40.0881 -83.7894 311° West 457 526 36,000  Level Indianapolis Center
Fri 09:45:11 PM 40.2011 -83.9178 319° Northwest 457 526 36,000  Level Indianapolis Center
Fri 09:46:12 PM 40.2969 -84.0308 318° Northwest 459 528 36,000  Level Indianapolis Center
Fri 09:47:13 PM 40.3744 -84.1628 308° West 454 522 36,000 -393 Level Indianapolis Center
Fri 09:48:14 PM 40.4531 -84.2931 308° West 453 521 35,200 -878 Descending Indianapolis Center
Fri 09:49:16 PM 40.5319 -84.4264 308° West 457 526 34,200 -585 Descending Indianapolis Center
Fri 09:50:17 PM 40.6114 -84.5597 308° West 458 527 34,000 -141 Descending Indianapolis Center
Fri 09:50:41 PM 40.6439 -84.6133 309° West 458 527 34,000  Level Chicago Center
Fri 09:51:42 PM 40.7239 -84.7486 308° West 465 535 34,000  Level Chicago Center
Fri 09:52:44 PM 40.8047 -84.8847 308° West 470 541 34,000 -146 Level Chicago Center
Fri 09:53:45 PM 40.8689 -85.0375 299° West 471 542 33,700 -585 Descending Chicago Center
Fri 09:54:47 PM 40.9319 -85.1875 299° West 468 539 32,800 -1,210 Descending Chicago Center
Fri 09:55:49 PM 40.9961 -85.3406 299° West 472 543 31,200 -1,707 Descending Chicago Center
Fri 09:56:50 PM 41.0608 -85.4939 299° West 475 547 29,300 -1,854 Descending Chicago Center
Fri 09:57:52 PM 41.1250 -85.6503 299° West 480 552 27,400 -1,887 Descending Chicago Center
Fri 09:58:54 PM 41.2042 -85.8414 299° West 487 560 25,400 -1,171 Descending Chicago Center
Fri 09:59:55 PM 41.2672 -85.9958 299° West 477 549 25,000 -195 Descending Chicago Center
Fri 10:00:57 PM 41.3108 -86.1606 289° West 475 547 25,000 -878 Level Chicago Center
Fri 10:01:58 PM 41.3128 -86.3344 271° West 470 541 23,200 -1,854 Descending Chicago Center
Fri 10:03:00 PM 41.3125 -86.5025 270° West 462 532 21,200 -1,935 Descending Chicago Center
Fri 10:04:02 PM 41.3144 -86.6658 271° West 448 516 19,200 -2,341 Descending Chicago Center
Fri 10:05:03 PM 41.3383 -86.8172 282° West 425 489 16,400 -2,683 Descending Chicago Center
Fri 10:06:05 PM 41.3786 -86.9514 292° West 415 478 13,700 -2,634 Descending Chicago Center
Fri 10:07:06 PM 41.4658 -87.0836 311° West 400 460 11,000 -1,424 Descending Chicago Center
Fri 10:08:03 PM 41.5333 -87.1833 312° West 344 396 10,900  Descending Chicago TRACON
Fri 10:09:03 PM 41.5833 -87.2667 309° West 319 367 11,000 50 Climbing Chicago TRACON
Fri 10:10:03 PM 41.6500 -87.3667 312° West 321 369 11,000 -350 Level Chicago TRACON
Fri 10:11:03 PM 41.7000 -87.4500 309° West 306 352 10,300 -526 Descending Chicago TRACON
Fri 10:11:57 PM 41.7500 -87.5333 309° West 296 341 10,000 -254 Descending Chicago TRACON
Fri 10:12:14 PM 41.7503 -87.5358 278° West 299 344 10,000 -308 Level Chicago Center
Fri 10:13:15 PM 41.8164 -87.6408 310° West 309 356 9,600 -808 Descending Chicago Center
Fri 10:13:58 PM 41.8500 -87.7000 307° West 311 358 8,600 -990 Descending Chicago TRACON
Fri 10:14:58 PM 41.9000 -87.7833 309° West 296 341 7,900 -400 Descending Chicago TRACON
Fri 10:15:58 PM 41.9167 -87.8833 283° West 226 260 7,800 -700 Descending Chicago TRACON
Fri 10:16:58 PM 41.8667 -87.9167 206° Southwest 188 216 6,500 -1,229 Descending Chicago TRACON
Fri 10:17:21 PM 41.8556 -87.9297 221° Southwest 192 221 6,100 -1,214 Descending Chicago Center
Fri 10:18:22 PM 41.8114 -87.9644 210° Southwest 188 216 4,800 -1,024 Descending Chicago Center
Fri 10:19:24 PM 41.7950 -88.0292 251° West 212 244 4,000 -774 Descending Chicago Center

Login

Don't have an account? Register now (free) for customized features, flight alerts, and more!